Time,TemperatureF,DewpointF,PressureIn,WindDirection,WindDirectionDegrees,WindSpeedMPH,WindSpeedGustMPH,Humidity,HourlyPrecipIn,Conditions,Clouds,dailyrainin,SoftwareType,DateUTC
2013-05-24 00:06:00,76.7,73.0,30.01,NNE,12,1.0,1.0,87,0.00,,,0.00,weatherlink.com 1.10,2013-05-24 04:06:00,
2013-05-24 00:21:00,76.8,73.0,30.00,NW,316,0.0,2.0,87,0.00,,,0.00,weatherlink.com 1.10,2013-05-24 04:21:00,
2013-05-24 00:36:00,76.7,73.0,30.00,NNE,12,0.0,1.0,87,0.00,,,0.00,weatherlink.com 1.10,2013-05-24 04:36:00,
2013-05-24 00:51:00,76.8,73.0,30.00,NNE,14,0.0,2.0,88,0.00,,,0.00,weatherlink.com 1.10,2013-05-24 04:51:00,
2013-05-24 01:06:00,76.8,73.0,30.01,NNE,18,0.0,2.0,87,0.00,,,0.00,weatherlink.com 1.10,2013-05-24 05:06:00,
2013-05-24 01:21:00,76.9,73.0,30.00,North,353,1.0,3.0,88,0.00,,,0.00,weatherlink.com 1.10,2013-05-24 05:21:00,
2013-05-24 01:36:00,76.9,74.0,30.00,NNW,330,0.0,3.0,89,0.00,,,0.00,weatherlink.com 1.10,2013-05-24 05:36:00,
2013-05-24 01:51:00,76.8,73.0,30.00,North,356,2.0,4.0,89,0.00,,,0.00,weatherlink.com 1.10,2013-05-24 05:51:00,
2013-05-24 02:06:00,76.7,73.0,30.00,North,9,0.0,2.0,89,0.00,,,0.00,weatherlink.com 1.10,2013-05-24 06:06:00,
2013-05-24 02:21:00,76.7,73.0,30.00,NNW,347,1.0,3.0,89,0.00,,,0.00,weatherlink.com 1.10,2013-05-24 06:21:00,
2013-05-24 02:36:00,76.8,73.0,29.99,North,352,1.0,3.0,88,0.00,,,0.00,weatherlink.com 1.10,2013-05-24 06:36:00,
2013-05-24 02:51:00,76.8,73.0,29.99,NNE,13,1.0,2.0,89,0.00,,,0.00,weatherlink.com 1.10,2013-05-24 06:51:00,
2013-05-24 03:06:00,76.7,73.0,29.99,NNW,348,1.0,3.0,89,0.00,,,0.00,weatherlink.com 1.10,2013-05-24 07:06:00,
2013-05-24 03:21:00,76.8,73.0,29.99,North,11,1.0,3.0,89,0.00,,,0.00,weatherlink.com 1.10,2013-05-24 07:21:00,
2013-05-24 03:36:00,76.8,73.0,29.98,NNW,344,1.0,3.0,89,0.00,,,0.00,weatherlink.com 1.10,2013-05-24 07:36:00,
2013-05-24 03:51:00,76.7,73.0,29.99,NNE,23,1.0,3.0,89,0.00,,,0.00,weatherlink.com 1.10,2013-05-24 07:51:00,
2013-05-24 04:06:00,76.6,73.0,29.98,NNW,335,1.0,2.0,89,0.00,,,0.00,weatherlink.com 1.10,2013-05-24 08:06:00,
2013-05-24 04:21:00,76.6,73.0,29.98,NNE,13,1.0,2.0,87,0.00,,,0.00,weatherlink.com 1.10,2013-05-24 08:21:00,
2013-05-24 04:36:00,76.7,72.0,29.98,NE,53,1.0,3.0,86,0.00,,,0.00,weatherlink.com 1.10,2013-05-24 08:36:00,
2013-05-24 04:51:00,76.8,72.0,29.98,WNW,299,1.0,3.0,85,0.00,,,0.00,weatherlink.com 1.10,2013-05-24 08:51:00,
2013-05-24 05:06:00,76.8,72.0,29.98,NNW,347,1.0,2.0,84,0.00,,,0.00,weatherlink.com 1.10,2013-05-24 09:06:00,
2013-05-24 05:21:00,76.8,72.0,29.99,NE,35,0.0,3.0,84,0.00,,,0.00,weatherlink.com 1.10,2013-05-24 09:21:00,
2013-05-24 05:36:00,76.7,72.0,29.99,North,8,1.0,3.0,84,0.00,,,0.00,weatherlink.com 1.10,2013-05-24 09:36:00,
2013-05-24 05:51:00,76.8,72.0,30.00,NNE,30,1.0,3.0,85,0.00,,,0.00,weatherlink.com 1.10,2013-05-24 09:51:00,
2013-05-24 06:06:00,76.6,72.0,30.00,North,11,1.0,4.0,84,0.00,,,0.00,weatherlink.com 1.10,2013-05-24 10:06:00,
2013-05-24 06:21:00,76.6,72.0,30.01,North,9,1.0,3.0,84,0.00,,,0.00,weatherlink.com 1.10,2013-05-24 10:21:00,
2013-05-24 06:37:00,76.7,72.0,30.01,NW,308,1.0,3.0,84,0.00,,,0.00,weatherlink.com 1.10,2013-05-24 10:37:00,
2013-05-24 06:52:00,76.9,72.0,30.02,NE,47,0.0,3.0,84,0.00,,,0.00,weatherlink.com 1.10,2013-05-24 10:52:00,
2013-05-24 07:07:00,77.2,72.0,30.02,ENE,64,2.0,3.0,84,0.00,,,0.00,weatherlink.com 1.10,2013-05-24 11:07:00,
2013-05-24 07:22:00,78.0,73.0,30.02,NE,41,0.0,5.0,85,0.00,,,0.00,weatherlink.com 1.10,2013-05-24 11:22:00,
2013-05-24 07:37:00,78.5,74.0,30.03,WNW,287,2.0,5.0,85,0.00,,,0.00,weatherlink.com 1.10,2013-05-24 11:37:00,
2013-05-24 07:52:00,79.0,74.0,30.03,NNE,18,3.0,4.0,84,0.00,,,0.00,weatherlink.com 1.10,2013-05-24 11:52:00,
2013-05-24 08:07:00,79.7,75.0,30.03,NNE,16,1.0,5.0,84,0.00,,,0.00,weatherlink.com 1.10,2013-05-24 12:07:00,
2013-05-24 08:22:00,80.1,75.0,30.04,North,1,1.0,5.0,83,0.00,,,0.00,weatherlink.com 1.10,2013-05-24 12:22:00,
2013-05-24 08:37:00,80.3,75.0,30.04,NNE,12,2.0,6.0,83,0.00,,,0.00,weatherlink.com 1.10,2013-05-24 12:37:00,
2013-05-24 08:52:00,81.0,75.0,30.04,NNE,27,2.0,6.0,82,0.00,,,0.00,weatherlink.com 1.10,2013-05-24 12:52:00,
2013-05-24 09:07:00,81.4,75.0,30.05,NNE,30,2.0,4.0,82,0.00,,,0.00,weatherlink.com 1.10,2013-05-24 13:07:00,
2013-05-24 09:22:00,81.9,75.0,30.05,NE,49,2.0,5.0,79,0.00,,,0.00,weatherlink.com 1.10,2013-05-24 13:22:00,
2013-05-24 09:37:00,82.2,75.0,30.05,NNW,347,1.0,5.0,79,0.00,,,0.00,weatherlink.com 1.10,2013-05-24 13:37:00,
2013-05-24 09:52:00,83.2,75.0,30.05,NNE,12,2.0,4.0,77,0.00,,,0.00,weatherlink.com 1.10,2013-05-24 13:52:00,
2013-05-24 10:07:00,83.4,76.0,30.05,NE,54,2.0,7.0,77,0.00,,,0.00,weatherlink.com 1.10,2013-05-24 14:07:00,
2013-05-24 10:22:00,82.9,75.0,30.06,North,359,3.0,6.0,77,0.00,,,0.00,weatherlink.com 1.10,2013-05-24 14:22:00,
2013-05-24 10:37:00,82.6,75.0,30.06,NNE,20,2.0,5.0,78,0.00,,,0.00,weatherlink.com 1.10,2013-05-24 14:37:00,
2013-05-24 10:52:00,83.8,76.0,30.06,NW,324,2.0,5.0,77,0.00,,,0.00,weatherlink.com 1.10,2013-05-24 14:52:00,
2013-05-24 11:07:00,84.1,75.0,30.06,West,269,3.0,5.0,75,0.00,,,0.00,weatherlink.com 1.10,2013-05-24 15:07:00,
2013-05-24 11:22:00,85.1,76.0,30.07,NE,43,4.0,5.0,74,0.00,,,0.00,weatherlink.com 1.10,2013-05-24 15:22:00,
2013-05-24 11:37:00,85.1,76.0,30.07,NNE,17,3.0,3.0,73,0.00,,,0.00,weatherlink.com 1.10,2013-05-24 15:37:00,
2013-05-24 11:52:00,85.8,77.0,30.07,North,9,1.0,4.0,74,0.00,,,0.00,weatherlink.com 1.10,2013-05-24 15:52:00,
2013-05-24 12:07:00,84.6,76.0,30.07,North,3,2.0,6.0,76,0.00,,,0.00,weatherlink.com 1.10,2013-05-24 16:07:00,
2013-05-24 12:22:00,84.8,77.0,30.07,WNW,284,0.0,7.0,76,0.00,,,0.00,weatherlink.com 1.10,2013-05-24 16:22:00,
2013-05-24 12:38:00,84.4,76.0,30.07,North,360,0.0,5.0,76,0.00,,,0.00,weatherlink.com 1.10,2013-05-24 16:38:00,
2013-05-24 12:52:00,84.9,76.0,30.07,WNW,285,1.0,7.0,75,0.00,,,0.00,weatherlink.com 1.10,2013-05-24 16:52:00,
2013-05-24 13:07:00,84.9,76.0,30.06,NW,316,2.0,7.0,75,0.00,,,0.00,weatherlink.com 1.10,2013-05-24 17:07:00,
2013-05-24 13:23:00,84.5,76.0,30.07,NNW,345,2.0,7.0,75,0.00,,,0.00,weatherlink.com 1.10,2013-05-24 17:23:00,
2013-05-24 13:38:00,84.6,76.0,30.06,WNW,302,6.0,8.0,74,0.00,,,0.00,weatherlink.com 1.10,2013-05-24 17:38:00,
2013-05-24 13:53:00,84.5,76.0,30.05,NNW,328,2.0,8.0,75,0.00,,,0.00,weatherlink.com 1.10,2013-05-24 17:53:00,
2013-05-24 14:08:00,84.8,76.0,30.06,NW,319,5.0,7.0,74,0.00,,,0.00,weatherlink.com 1.10,2013-05-24 18:08:00,
2013-05-24 14:23:00,84.1,77.0,30.06,NW,323,4.0,7.0,78,0.00,,,0.00,weatherlink.com 1.10,2013-05-24 18:23:00,
2013-05-24 14:38:00,83.7,76.0,30.05,NNW,328,4.0,9.0,77,0.00,,,0.00,weatherlink.com 1.10,2013-05-24 18:38:00,
2013-05-24 14:53:00,84.2,76.0,30.05,ENE,61,6.0,8.0,77,0.00,,,0.00,weatherlink.com 1.10,2013-05-24 18:53:00,
2013-05-24 15:08:00,83.7,77.0,30.05,WNW,297,1.0,9.0,80,0.00,,,0.00,weatherlink.com 1.10,2013-05-24 19:08:00,
2013-05-24 15:23:00,84.3,77.0,30.05,NNE,20,3.0,9.0,78,0.00,,,0.00,weatherlink.com 1.10,2013-05-24 19:23:00,
2013-05-24 15:38:00,84.6,77.0,30.04,WNW,294,1.0,7.0,77,0.00,,,0.00,weatherlink.com 1.10,2013-05-24 19:38:00,
2013-05-24 15:52:00,84.1,77.0,30.05,NNW,345,6.0,8.0,79,0.00,,,0.00,weatherlink.com 1.10,2013-05-24 19:52:00,
2013-05-24 16:08:00,84.2,77.0,30.05,North,356,6.0,9.0,78,0.00,,,0.00,weatherlink.com 1.10,2013-05-24 20:08:00,
2013-05-24 16:23:00,83.9,77.0,30.04,West,271,2.0,9.0,80,0.00,,,0.00,weatherlink.com 1.10,2013-05-24 20:23:00,
2013-05-24 16:38:00,83.7,77.0,30.04,NNE,17,2.0,9.0,79,0.00,,,0.00,weatherlink.com 1.10,2013-05-24 20:38:00,
2013-05-24 16:53:00,85.0,77.0,30.04,North,6,3.0,6.0,77,0.00,,,0.00,weatherlink.com 1.10,2013-05-24 20:53:00,
2013-05-24 17:08:00,84.2,76.0,30.04,NE,41,2.0,8.0,77,0.00,,,0.00,weatherlink.com 1.10,2013-05-24 21:08:00,
2013-05-24 17:23:00,84.7,76.0,30.04,North,5,3.0,8.0,76,0.00,,,0.00,weatherlink.com 1.10,2013-05-24 21:23:00,
2013-05-24 17:38:00,85.6,76.0,30.03,NNW,330,2.0,6.0,72,0.00,,,0.00,weatherlink.com 1.10,2013-05-24 21:38:00,
2013-05-24 17:53:00,85.5,75.0,30.03,NNW,348,1.0,7.0,70,0.00,,,0.00,weatherlink.com 1.10,2013-05-24 21:53:00,
2013-05-24 18:08:00,85.9,74.0,30.02,NW,319,3.0,7.0,67,0.00,,,0.00,weatherlink.com 1.10,2013-05-24 22:08:00,
2013-05-24 18:23:00,85.9,72.0,30.03,NNE,12,2.0,5.0,64,0.00,,,0.00,weatherlink.com 1.10,2013-05-24 22:23:00,
2013-05-24 18:38:00,86.1,71.0,30.02,North,360,1.0,6.0,61,0.00,,,0.00,weatherlink.com 1.10,2013-05-24 22:38:00,
2013-05-24 18:53:00,85.5,71.0,30.02,NNW,337,2.0,6.0,62,0.00,,,0.00,weatherlink.com 1.10,2013-05-24 22:53:00,
2013-05-24 19:08:00,84.6,72.0,30.03,NNW,343,1.0,5.0,65,0.00,,,0.00,weatherlink.com 1.10,2013-05-24 23:08:00,
2013-05-24 19:23:00,84.2,71.0,30.03,North,360,1.0,4.0,65,0.00,,,0.00,weatherlink.com 1.10,2013-05-24 23:23:00,
2013-05-24 19:38:00,83.5,71.0,30.03,NW,312,1.0,4.0,66,0.00,,,0.00,weatherlink.com 1.10,2013-05-24 23:38:00,
2013-05-24 19:53:00,83.0,71.0,30.04,WNW,302,0.0,3.0,67,0.00,,,0.00,weatherlink.com 1.10,2013-05-24 23:53:00,
2013-05-24 20:08:00,82.4,71.0,30.04,ENE,65,1.0,5.0,68,0.00,,,0.00,weatherlink.com 1.10,2013-05-25 00:08:00,
2013-05-24 20:23:00,81.8,71.0,30.04,NNW,335,0.0,3.0,70,0.00,,,0.00,weatherlink.com 1.10,2013-05-25 00:23:00,
2013-05-24 20:38:00,81.3,71.0,30.04,North,350,1.0,2.0,71,0.00,,,0.00,weatherlink.com 1.10,2013-05-25 00:38:00,
2013-05-24 20:53:00,80.9,71.0,30.04,North,356,1.0,2.0,71,0.00,,,0.00,weatherlink.com 1.10,2013-05-25 00:53:00,
2013-05-24 21:08:00,80.7,71.0,30.04,NE,51,1.0,2.0,71,0.00,,,0.00,weatherlink.com 1.10,2013-05-25 01:08:00,
2013-05-24 21:23:00,80.7,71.0,30.04,NNE,25,0.0,3.0,71,0.00,,,0.00,weatherlink.com 1.10,2013-05-25 01:23:00,
2013-05-24 21:38:00,80.4,71.0,30.05,NNE,33,1.0,2.0,72,0.00,,,0.00,weatherlink.com 1.10,2013-05-25 01:38:00,
2013-05-24 21:53:00,80.3,71.0,30.05,ENE,75,2.0,3.0,73,0.00,,,0.00,weatherlink.com 1.10,2013-05-25 01:53:00,
2013-05-24 22:08:00,80.2,71.0,30.06,ENE,60,1.0,3.0,73,0.00,,,0.00,weatherlink.com 1.10,2013-05-25 02:08:00,
2013-05-24 22:23:00,80.1,70.0,30.06,NE,44,1.0,4.0,72,0.00,,,0.00,weatherlink.com 1.10,2013-05-25 02:23:00,
2013-05-24 22:38:00,80.1,71.0,30.06,North,356,2.0,3.0,73,0.00,,,0.00,weatherlink.com 1.10,2013-05-25 02:38:00,
2013-05-24 22:53:00,80.1,71.0,30.06,North,8,1.0,3.0,73,0.00,,,0.00,weatherlink.com 1.10,2013-05-25 02:53:00,
2013-05-24 23:08:00,80.0,71.0,30.07,NNE,16,0.0,2.0,74,0.00,,,0.00,weatherlink.com 1.10,2013-05-25 03:08:00,
2013-05-24 23:23:00,79.6,71.0,30.07,NNE,13,1.0,3.0,74,0.00,,,0.00,weatherlink.com 1.10,2013-05-25 03:23:00,
2013-05-24 23:37:00,79.3,71.0,30.07,NNE,20,1.0,2.0,76,0.00,,,0.00,weatherlink.com 1.10,2013-05-25 03:37:00,
2013-05-24 23:53:00,79.2,71.0,30.07,NNE,15,1.0,2.0,77,0.00,,,0.00,weatherlink.com 1.10,2013-05-25 03:53:00,